Time;durP1;ratioP1;P1;durP2;ratioP2;P2;SDS_P1;SDS_P2;PMS_P1;PMS_P2;Temp;Humidity;BMP_temperature;BMP_pressure;BME280_temperature;BME280_humidity;BME280_pressure;Samples;Min_cycle;Max_cycle;Signal;HPM_P1;HPM_P2
2022/02/16 00:00:24;;;;;;;2.83;1.80;;;4.70;99.70;;;;;;5071433;28;20450;-69
2022/02/16 00:02:51;;;;;;;3.70;1.93;;;4.70;99.70;;;;;;5071290;28;20454;-69
2022/02/16 00:05:18;;;;;;;6.03;2.40;;;4.70;99.70;;;;;;5072029;28;20462;-69
2022/02/16 00:07:47;;;;;;;3.40;1.83;;;4.70;99.70;;;;;;5089485;28;20863;-69
2022/02/16 00:10:16;;;;;;;5.80;2.10;;;4.70;99.70;;;;;;5081361;28;20485;-69
2022/02/16 00:12:46;;;;;;;3.20;2.00;;;4.80;99.70;;;;;;5089413;28;20456;-69
2022/02/16 00:15:14;;;;;;;4.10;2.20;;;4.80;99.70;;;;;;5087660;28;20446;-69
2022/02/16 00:17:41;;;;;;;4.30;1.93;;;4.80;99.70;;;;;;5082096;28;20620;-68
2022/02/16 00:20:10;;;;;;;4.23;1.93;;;4.70;99.70;;;;;;5073571;28;20442;-69
2022/02/16 00:22:38;;;;;;;4.23;2.13;;;4.70;99.70;;;;;;5073380;28;20765;-70
2022/02/16 00:25:06;;;;;;;3.03;2.03;;;4.80;99.70;;;;;;5073064;28;20450;-70
2022/02/16 00:27:33;;;;;;;5.40;2.10;;;4.80;99.70;;;;;;5073742;28;20462;-69
2022/02/16 00:30:01;;;;;;;3.23;1.87;;;4.80;99.70;;;;;;5088530;28;20527;-70
2022/02/16 00:32:28;;;;;;;2.47;1.97;;;4.80;99.70;;;;;;5086473;28;20447;-68
2022/02/16 00:34:54;;;;;;;5.60;2.10;;;4.90;99.70;;;;;;5086974;28;20446;-70
2022/02/16 00:37:21;;;;;;;3.50;2.00;;;4.80;99.70;;;;;;5087335;28;20475;-69
2022/02/16 00:39:48;;;;;;;4.00;1.97;;;4.80;99.70;;;;;;5089401;28;20445;-69
2022/02/16 00:42:15;;;;;;;4.30;2.30;;;4.80;99.70;;;;;;5087591;28;20438;-70
2022/02/16 00:44:41;;;;;;;2.97;1.90;;;4.80;99.70;;;;;;5088287;28;20461;-69
2022/02/16 00:47:10;;;;;;;3.27;1.77;;;4.80;99.70;;;;;;5088642;28;20451;-69
2022/02/16 00:49:36;;;;;;;2.50;1.97;;;4.70;99.70;;;;;;5087381;28;20540;-69
2022/02/16 00:52:04;;;;;;;5.30;2.13;;;4.70;99.70;;;;;;5088890;28;20481;-70
2022/02/16 00:54:30;;;;;;;3.17;2.00;;;4.70;99.70;;;;;;5072715;28;20446;-69
2022/02/16 00:57:01;;;;;;;4.90;2.00;;;4.70;99.70;;;;;;5072737;28;20442;-69
2022/02/16 00:59:27;;;;;;;5.00;1.90;;;4.80;99.70;;;;;;5071848;28;20455;-69
2022/02/16 01:01:54;;;;;;;3.80;2.00;;;4.80;99.70;;;;;;5073283;28;20439;-69
2022/02/16 01:04:24;;;;;;;3.20;1.93;;;4.80;99.70;;;;;;5076729;28;20447;-69
2022/02/16 01:06:50;;;;;;;2.80;1.93;;;4.90;99.70;;;;;;5075484;28;20945;-69
2022/02/16 01:09:17;;;;;;;2.93;1.80;;;4.80;99.70;;;;;;5076346;28;20475;-69
2022/02/16 01:11:44;;;;;;;4.03;2.07;;;4.90;99.70;;;;;;5075870;28;20485;-69
2022/02/16 01:14:11;;;;;;;2.70;1.80;;;4.90;99.70;;;;;;5079293;28;21023;-69
2022/02/16 01:16:38;;;;;;;5.33;1.90;;;4.90;99.70;;;;;;5081525;28;20438;-69
2022/02/16 01:19:05;;;;;;;2.83;1.90;;;4.90;99.70;;;;;;5075368;28;20478;-69
2022/02/16 01:21:33;;;;;;;5.40;1.90;;;5.10;99.70;;;;;;5088064;28;20437;-69
2022/02/16 01:24:00;;;;;;;2.40;1.77;;;5.10;99.70;;;;;;5091176;28;20450;-69
2022/02/16 01:26:27;;;;;;;2.67;2.00;;;5.10;99.70;;;;;;5092590;28;20457;-69
2022/02/16 01:28:54;;;;;;;3.23;1.80;;;5.10;99.70;;;;;;5079799;28;20477;-69
2022/02/16 01:31:21;;;;;;;3.07;1.90;;;5.10;99.70;;;;;;5076206;28;20481;-69
2022/02/16 01:33:48;;;;;;;3.27;1.80;;;5.00;99.70;;;;;;5075220;28;20515;-69
2022/02/16 01:36:15;;;;;;;3.90;1.80;;;5.10;99.70;;;;;;5075704;28;20443;-70
2022/02/16 01:38:43;;;;;;;4.57;1.93;;;5.10;99.70;;;;;;5074798;28;20492;-69
2022/02/16 01:41:14;;;;;;;2.40;1.67;;;5.20;99.70;;;;;;5078697;28;20446;-69
2022/02/16 01:43:45;;;;;;;2.90;2.00;;;5.10;99.70;;;;;;5090749;28;20442;-69
2022/02/16 01:46:12;;;;;;;4.33;1.70;;;5.10;99.70;;;;;;5091748;28;20454;-68
2022/02/16 01:48:39;;;;;;;3.40;1.77;;;5.10;99.70;;;;;;5091180;28;20469;-70
2022/02/16 01:51:05;;;;;;;3.10;1.70;;;5.20;99.70;;;;;;5090447;28;20482;-68
2022/02/16 01:53:32;;;;;;;4.43;1.83;;;5.20;99.70;;;;;;5092323;28;20441;-68
2022/02/16 01:56:00;;;;;;;5.07;1.97;;;5.30;99.70;;;;;;5090267;28;20442;-69
2022/02/16 01:58:28;;;;;;;5.00;2.10;;;5.40;99.70;;;;;;5090540;28;20468;-68
2022/02/16 02:00:56;;;;;;;5.50;1.90;;;5.20;99.70;;;;;;5092337;28;20469;-69
2022/02/16 02:03:23;;;;;;;4.00;2.00;;;5.20;99.70;;;;;;5079969;28;20965;-68
2022/02/16 02:05:51;;;;;;;3.23;1.70;;;5.20;99.70;;;;;;5075149;28;20454;-68
2022/02/16 02:08:20;;;;;;;4.40;1.80;;;5.30;99.70;;;;;;5063763;28;20478;-69
2022/02/16 02:10:47;;;;;;;3.43;1.70;;;5.20;99.70;;;;;;5075509;28;20608;-69
2022/02/16 02:13:16;;;;;;;3.23;1.90;;;5.20;99.70;;;;;;5073419;28;20467;-69
2022/02/16 02:15:43;;;;;;;3.70;1.90;;;5.10;99.70;;;;;;5074718;28;20442;-70
2022/02/16 02:18:13;;;;;;;4.10;1.70;;;5.10;99.70;;;;;;5085068;28;20469;-69
2022/02/16 02:20:42;;;;;;;3.13;1.90;;;5.20;99.70;;;;;;5091910;28;20450;-68
2022/02/16 02:23:09;;;;;;;2.93;1.60;;;5.20;99.70;;;;;;5077797;28;20454;-68
2022/02/16 02:25:44;;;;;;;6.77;1.90;;;5.30;99.70;;;;;;5089655;28;20822;-69
2022/02/16 02:28:11;;;;;;;2.30;1.73;;;5.30;99.70;;;;;;5084590;28;20470;-68
2022/02/16 02:30:38;;;;;;;3.73;1.70;;;5.30;99.70;;;;;;5090016;28;20481;-69
2022/02/16 02:33:05;;;;;;;3.67;2.00;;;5.30;99.70;;;;;;5089880;28;20453;-69
2022/02/16 02:35:32;;;;;;;2.40;1.70;;;5.40;99.70;;;;;;5068070;28;20816;-69
2022/02/16 02:38:00;;;;;;;3.80;1.80;;;5.50;99.70;;;;;;5052904;28;20463;-69
2022/02/16 02:40:27;;;;;;;5.63;1.93;;;5.40;99.70;;;;;;5066859;28;20454;-69
2022/02/16 02:42:53;;;;;;;3.00;1.80;;;5.40;99.70;;;;;;5072931;28;20446;-69
2022/02/16 02:45:20;;;;;;;3.20;1.80;;;5.40;99.70;;;;;;5072739;28;20451;-69
2022/02/16 02:47:47;;;;;;;2.80;1.80;;;5.40;99.70;;;;;;5072105;28;20463;-69
2022/02/16 02:50:13;;;;;;;3.40;1.80;;;5.40;99.70;;;;;;5072759;28;20443;-69
2022/02/16 02:52:40;;;;;;;3.07;1.80;;;5.40;99.70;;;;;;5072567;28;20479;-69
2022/02/16 02:55:10;;;;;;;2.53;1.70;;;5.40;99.70;;;;;;5072509;28;20447;-69
2022/02/16 02:57:37;;;;;;;2.90;1.70;;;5.50;99.70;;;;;;5072376;28;20458;-69
2022/02/16 03:00:06;;;;;;;3.40;1.90;;;5.60;99.70;;;;;;5072619;28;20451;-69
2022/02/16 03:02:32;;;;;;;4.53;1.70;;;5.50;99.70;;;;;;5072402;28;20446;-69
2022/02/16 03:05:01;;;;;;;3.50;1.57;;;5.50;99.70;;;;;;5072174;28;20443;-69
2022/02/16 03:07:28;;;;;;;2.93;1.67;;;5.60;99.70;;;;;;5072162;28;20486;-69
2022/02/16 03:09:54;;;;;;;3.57;1.70;;;5.60;99.70;;;;;;5072414;28;20447;-69
2022/02/16 03:12:23;;;;;;;4.60;1.90;;;5.60;99.70;;;;;;5071503;28;20502;-68
2022/02/16 03:14:49;;;;;;;3.50;2.00;;;5.70;99.70;;;;;;5071859;28;20837;-68
2022/02/16 03:17:17;;;;;;;3.10;1.70;;;5.70;99.70;;;;;;5072133;28;20442;-69
2022/02/16 03:19:44;;;;;;;4.10;1.80;;;5.80;99.70;;;;;;5071996;28;20454;-68
2022/02/16 03:22:10;;;;;;;2.70;1.60;;;5.80;99.70;;;;;;5071984;28;20462;-70
2022/02/16 03:24:37;;;;;;;3.10;1.70;;;5.80;99.70;;;;;;5071333;28;20448;-68
2022/02/16 03:27:04;;;;;;;3.23;1.67;;;5.70;99.70;;;;;;5071671;28;20443;-68
2022/02/16 03:29:32;;;;;;;2.70;1.63;;;5.60;99.70;;;;;;5071562;28;20439;-69
2022/02/16 03:31:59;;;;;;;3.27;1.80;;;5.70;99.70;;;;;;5071814;28;20483;-69
2022/02/16 03:34:26;;;;;;;2.80;1.90;;;5.60;99.70;;;;;;5072018;28;20455;-69
2022/02/16 03:36:53;;;;;;;2.77;1.47;;;5.70;99.70;;;;;;5071663;28;20569;-68
2022/02/16 03:39:19;;;;;;;3.57;1.50;;;5.80;99.70;;;;;;5071570;28;21025;-68
2022/02/16 03:41:46;;;;;;;3.10;1.80;;;5.80;99.70;;;;;;5071701;28;20443;-69
2022/02/16 03:44:13;;;;;;;4.83;1.60;;;5.70;99.70;;;;;;5071817;28;20504;-68
2022/02/16 03:46:41;;;;;;;4.43;1.57;;;5.90;99.70;;;;;;5071380;28;20446;-69
2022/02/16 03:49:08;;;;;;;2.53;1.43;;;5.90;99.70;;;;;;5071421;28;20970;-68
2022/02/16 03:51:35;;;;;;;3.50;1.80;;;5.80;99.70;;;;;;5071430;28;20474;-68
2022/02/16 03:54:02;;;;;;;2.57;1.60;;;5.90;99.70;;;;;;5071600;28;20964;-68
2022/02/16 03:56:29;;;;;;;5.00;1.87;;;5.90;99.70;;;;;;5071297;28;20443;-70
2022/02/16 03:58:55;;;;;;;1.70;1.30;;;5.90;99.70;;;;;;5071149;28;20475;-68
2022/02/16 04:01:23;;;;;;;4.67;1.67;;;6.00;99.70;;;;;;5071126;28;20439;-68
2022/02/16 04:03:51;;;;;;;2.63;1.47;;;6.00;99.70;;;;;;5071664;28;20447;-67
2022/02/16 04:06:18;;;;;;;3.00;1.40;;;6.00;99.70;;;;;;5071157;28;20457;-68
2022/02/16 04:08:45;;;;;;;3.40;1.77;;;6.00;99.70;;;;;;5071045;28;20502;-68
2022/02/16 04:11:12;;;;;;;2.27;1.70;;;6.00;99.70;;;;;;5071280;28;20478;-68
2022/02/16 04:13:39;;;;;;;2.10;1.50;;;6.10;99.70;;;;;;5070648;28;20442;-68
2022/02/16 04:16:06;;;;;;;2.20;1.40;;;6.00;99.70;;;;;;5071036;28;20438;-69
2022/02/16 04:18:33;;;;;;;3.20;1.60;;;6.00;99.70;;;;;;5071177;28;20462;-68
2022/02/16 04:21:01;;;;;;;1.83;1.50;;;6.00;99.70;;;;;;5071159;28;20450;-68
2022/02/16 04:23:27;;;;;;;1.97;1.43;;;6.10;99.70;;;;;;5071389;28;20438;-68
2022/02/16 04:25:54;;;;;;;1.70;1.30;;;6.10;99.70;;;;;;5070840;28;20947;-68
2022/02/16 04:28:21;;;;;;;1.90;1.40;;;6.20;99.70;;;;;;5070776;28;20459;-68
2022/02/16 04:30:48;;;;;;;1.80;1.40;;;6.20;99.70;;;;;;5070692;28;20453;-67
2022/02/16 04:33:15;;;;;;;3.43;1.60;;;6.20;99.70;;;;;;5070908;28;20478;-69
2022/02/16 04:35:42;;;;;;;5.37;1.30;;;6.20;99.70;;;;;;5071548;28;20447;-68
2022/02/16 04:38:10;;;;;;;2.63;1.50;;;6.20;99.70;;;;;;5077558;28;20473;-68
2022/02/16 04:40:37;;;;;;;3.13;1.43;;;6.20;99.70;;;;;;5077591;28;20821;-68
2022/02/16 04:43:05;;;;;;;2.53;1.47;;;6.30;99.70;;;;;;5077722;28;20442;-68
2022/02/16 04:45:33;;;;;;;2.40;1.40;;;6.30;99.70;;;;;;5077363;28;20478;-68
2022/02/16 04:48:00;;;;;;;2.07;1.30;;;6.30;99.70;;;;;;5077493;28;20520;-69
2022/02/16 04:50:28;;;;;;;1.97;1.20;;;6.40;99.70;;;;;;5077439;28;20438;-68
2022/02/16 04:52:55;;;;;;;1.60;1.30;;;6.40;99.70;;;;;;5077488;28;20504;-68
2022/02/16 04:55:24;;;;;;;1.70;1.50;;;6.30;99.70;;;;;;5077376;28;20489;-69
2022/02/16 04:57:51;;;;;;;1.50;1.20;;;6.40;99.70;;;;;;5077375;28;20497;-68
2022/02/16 05:00:19;;;;;;;2.13;1.37;;;6.40;99.70;;;;;;5077569;28;20449;-68
2022/02/16 05:02:46;;;;;;;2.57;1.50;;;6.40;99.70;;;;;;5092688;28;20449;-68
2022/02/16 05:05:13;;;;;;;1.90;1.30;;;6.50;99.70;;;;;;5057143;28;20837;-69
2022/02/16 05:07:40;;;;;;;2.40;1.20;;;6.50;99.70;;;;;;5077365;28;20502;-68
2022/02/16 05:10:08;;;;;;;1.90;1.23;;;6.50;99.70;;;;;;5097741;28;20799;-68
2022/02/16 05:12:38;;;;;;;2.20;1.23;;;6.50;99.70;;;;;;5079224;28;20470;-68
2022/02/16 05:15:06;;;;;;;1.60;1.20;;;6.50;99.70;;;;;;5115232;22;21079;-66
2022/02/16 05:17:33;;;;;;;1.80;1.30;;;6.60;99.70;;;;;;5096764;28;20517;-67
2022/02/16 05:20:00;;;;;;;2.37;1.30;;;6.60;99.70;;;;;;5097294;28;20964;-66
2022/02/16 05:22:26;;;;;;;1.57;1.20;;;6.50;99.70;;;;;;5097677;28;20437;-66
2022/02/16 05:24:53;;;;;;;1.50;1.10;;;6.50;99.70;;;;;;5097413;28;20837;-66
2022/02/16 05:27:20;;;;;;;1.83;1.20;;;6.50;99.70;;;;;;5097511;28;20437;-66
2022/02/16 05:29:48;;;;;;;2.67;1.20;;;6.60;99.70;;;;;;5097587;28;20445;-66
2022/02/16 05:32:15;;;;;;;1.70;1.20;;;6.60;99.70;;;;;;5090907;28;20984;-65
2022/02/16 05:34:42;;;;;;;2.73;1.40;;;6.60;99.70;;;;;;5093196;28;20484;-66
2022/02/16 05:37:08;;;;;;;2.00;1.10;;;6.60;99.70;;;;;;5095483;28;20457;-65
2022/02/16 05:39:35;;;;;;;2.00;1.30;;;6.50;99.70;;;;;;5093941;28;20437;-66
2022/02/16 05:42:03;;;;;;;2.87;1.47;;;6.50;99.70;;;;;;5092923;28;20953;-66
2022/02/16 05:44:30;;;;;;;1.67;1.20;;;6.50;99.70;;;;;;5090250;28;20462;-66
2022/02/16 05:46:58;;;;;;;1.50;1.20;;;6.60;99.70;;;;;;5091689;28;20957;-66
2022/02/16 05:49:25;;;;;;;2.17;1.30;;;6.60;99.70;;;;;;5090558;28;20465;-65
2022/02/16 05:51:52;;;;;;;1.73;1.30;;;6.60;99.70;;;;;;5093122;28;21047;-66
2022/02/16 05:54:19;;;;;;;1.53;1.23;;;6.60;99.70;;;;;;5085447;28;20462;-66
2022/02/16 05:56:45;;;;;;;1.53;1.20;;;6.50;99.70;;;;;;5093395;28;20937;-65
2022/02/16 05:59:12;;;;;;;2.10;1.30;;;6.60;99.70;;;;;;5093172;28;20822;-66
2022/02/16 06:01:39;;;;;;;1.73;1.23;;;6.60;99.70;;;;;;5093848;28;20449;-66
2022/02/16 06:04:08;;;;;;;1.80;1.37;;;6.60;99.70;;;;;;5094118;28;20445;-65
2022/02/16 06:06:35;;;;;;;1.60;1.17;;;6.60;99.70;;;;;;5093114;28;20493;-66
2022/02/16 06:09:02;;;;;;;2.70;1.20;;;6.60;99.70;;;;;;5088753;28;20443;-66
2022/02/16 06:11:29;;;;;;;2.63;1.37;;;6.60;99.70;;;;;;5087985;28;20813;-66
2022/02/16 06:13:56;;;;;;;1.63;1.20;;;6.60;99.70;;;;;;5090062;28;21023;-66
2022/02/16 06:16:23;;;;;;;1.60;1.30;;;6.70;99.70;;;;;;5088339;28;20466;-66
2022/02/16 06:18:49;;;;;;;1.70;1.10;;;6.70;99.70;;;;;;5092203;28;20815;-66
2022/02/16 06:21:18;;;;;;;2.17;1.13;;;6.70;99.70;;;;;;5093298;28;20449;-66
2022/02/16 06:23:44;;;;;;;1.30;1.17;;;6.70;99.70;;;;;;5093703;28;20446;-66
2022/02/16 06:26:11;;;;;;;1.60;1.20;;;6.70;99.70;;;;;;5093244;28;20469;-66
2022/02/16 06:28:38;;;;;;;1.70;1.20;;;6.70;99.70;;;;;;5093340;28;20485;-66
2022/02/16 06:31:06;;;;;;;1.63;1.20;;;6.70;99.70;;;;;;5093940;28;20445;-66
2022/02/16 06:33:33;;;;;;;2.03;1.20;;;6.70;99.70;;;;;;5093297;28;20481;-66
2022/02/16 06:36:00;;;;;;;2.63;1.40;;;6.80;99.70;;;;;;5092975;28;20472;-67
2022/02/16 06:38:28;;;;;;;2.27;1.20;;;6.80;99.70;;;;;;5093189;28;20446;-66
2022/02/16 06:40:54;;;;;;;1.60;1.20;;;6.80;99.70;;;;;;5085126;28;20978;-66
2022/02/16 06:43:21;;;;;;;1.37;1.20;;;6.80;99.70;;;;;;5072656;28;20517;-66
2022/02/16 06:45:48;;;;;;;1.80;1.30;;;6.80;99.70;;;;;;5072334;28;20545;-67
2022/02/16 06:48:15;;;;;;;1.37;1.03;;;6.80;99.70;;;;;;5089692;28;20434;-66
2022/02/16 06:50:43;;;;;;;1.70;1.20;;;6.90;99.70;;;;;;5092817;28;20972;-66
2022/02/16 06:53:10;;;;;;;3.10;2.23;;;6.90;99.70;;;;;;5092977;28;20481;-65
2022/02/16 06:55:38;;;;;;;1.80;1.23;;;6.80;99.70;;;;;;5092578;28;20469;-67
2022/02/16 06:58:05;;;;;;;3.47;1.20;;;6.80;99.70;;;;;;5092422;28;20808;-67
2022/02/16 07:00:32;;;;;;;1.87;1.43;;;6.90;99.70;;;;;;5091568;28;20446;-67
2022/02/16 07:02:58;;;;;;;1.60;1.10;;;6.90;99.70;;;;;;5092766;28;20438;-67
2022/02/16 07:05:25;;;;;;;2.40;1.20;;;6.90;99.70;;;;;;5082890;28;20471;-66
2022/02/16 07:07:52;;;;;;;1.97;1.10;;;7.00;99.70;;;;;;5079783;28;20434;-66
2022/02/16 07:10:19;;;;;;;1.27;1.07;;;6.90;99.70;;;;;;5071667;28;20446;-66
2022/02/16 07:12:47;;;;;;;1.47;1.10;;;6.90;99.70;;;;;;5072273;28;20489;-66
2022/02/16 07:15:13;;;;;;;1.50;1.10;;;6.90;99.70;;;;;;5071668;28;20481;-66
2022/02/16 07:17:40;;;;;;;1.47;1.10;;;6.90;99.70;;;;;;5072159;28;20556;-65
2022/02/16 07:20:09;;;;;;;1.50;1.20;;;6.90;99.70;;;;;;5072270;28;20799;-66
2022/02/16 07:22:40;;;;;;;2.80;1.20;;;7.00;99.70;;;;;;5071916;28;20445;-66
2022/02/16 07:25:08;;;;;;;2.20;1.20;;;7.00;99.70;;;;;;5071832;28;20494;-67
2022/02/16 07:27:35;;;;;;;1.63;1.27;;;7.00;99.70;;;;;;5072025;28;20445;-67
2022/02/16 07:30:05;;;;;;;1.63;1.20;;;7.00;99.70;;;;;;5071797;28;20438;-65
2022/02/16 07:32:32;;;;;;;1.50;1.20;;;7.00;99.70;;;;;;5071887;28;20486;-67
2022/02/16 07:34:58;;;;;;;1.60;1.20;;;7.00;99.70;;;;;;5071186;28;20549;-66
2022/02/16 07:37:25;;;;;;;1.60;1.20;;;7.10;99.70;;;;;;5071982;28;20443;-66
2022/02/16 07:39:52;;;;;;;1.63;1.30;;;7.10;99.70;;;;;;5071683;28;20516;-66
2022/02/16 07:42:18;;;;;;;1.73;1.30;;;7.10;99.70;;;;;;5071761;28;21058;-66
2022/02/16 07:44:45;;;;;;;2.00;1.30;;;7.00;99.70;;;;;;5077914;28;20473;-67
2022/02/16 07:47:13;;;;;;;1.83;1.20;;;7.00;99.70;;;;;;5092086;28;20452;-66
2022/02/16 07:49:40;;;;;;;1.50;1.20;;;7.00;99.70;;;;;;5091902;28;20438;-66
2022/02/16 07:52:07;;;;;;;1.80;1.20;;;7.00;99.70;;;;;;5091729;28;20437;-65
2022/02/16 07:54:34;;;;;;;2.07;1.30;;;6.90;99.70;;;;;;5090917;28;20875;-66
2022/02/16 07:57:01;;;;;;;2.07;1.23;;;6.90;99.70;;;;;;5091367;28;20446;-66
2022/02/16 07:59:28;;;;;;;1.70;1.20;;;6.90;99.70;;;;;;5091381;28;20465;-66
2022/02/16 08:01:56;;;;;;;8.40;1.50;;;6.90;99.70;;;;;;5086142;28;20461;-66
2022/02/16 08:04:24;;;;;;;1.50;1.30;;;6.90;99.70;;;;;;5072566;28;20948;-66
2022/02/16 08:06:51;;;;;;;1.83;1.10;;;6.80;99.70;;;;;;5072950;28;20450;-66
2022/02/16 08:09:18;;;;;;;1.70;1.17;;;6.80;99.70;;;;;;5071900;28;20450;-66
2022/02/16 08:11:47;;;;;;;4.13;1.30;;;6.80;99.70;;;;;;5073264;28;20443;-66
2022/02/16 08:14:14;;;;;;;1.40;1.10;;;6.70;99.70;;;;;;5072365;28;20494;-66
2022/02/16 08:16:42;;;;;;;2.60;1.40;;;6.70;99.70;;;;;;5076784;28;20478;-66
2022/02/16 08:19:10;;;;;;;2.30;1.30;;;6.80;99.70;;;;;;5088992;28;20461;-66
2022/02/16 08:21:39;;;;;;;1.63;1.30;;;6.80;99.70;;;;;;5085289;28;20953;-66
2022/02/16 08:24:07;;;;;;;2.23;1.40;;;6.80;99.70;;;;;;5091279;28;20449;-66
2022/02/16 08:26:34;;;;;;;2.53;1.37;;;6.80;99.70;;;;;;5090851;28;20815;-66
2022/02/16 08:29:01;;;;;;;2.97;1.40;;;6.80;99.70;;;;;;5091127;28;20819;-66
2022/02/16 08:31:27;;;;;;;3.20;1.30;;;6.80;99.70;;;;;;5091351;28;20438;-67
2022/02/16 08:33:54;;;;;;;1.97;1.50;;;6.80;99.70;;;;;;5091360;28;20474;-67
2022/02/16 08:36:21;;;;;;;1.70;1.30;;;6.80;99.70;;;;;;5090758;28;20462;-66
2022/02/16 08:38:49;;;;;;;3.73;1.70;;;6.80;99.70;;;;;;5090986;28;20449;-66
2022/02/16 08:41:16;;;;;;;1.50;1.30;;;6.80;99.70;;;;;;5090885;28;20857;-66
2022/02/16 08:43:43;;;;;;;2.13;1.40;;;6.70;99.70;;;;;;5091078;28;20442;-66
2022/02/16 08:46:10;;;;;;;2.70;1.50;;;6.80;99.70;;;;;;5090801;28;20485;-66
2022/02/16 08:48:37;;;;;;;1.80;1.50;;;6.80;99.70;;;;;;5090888;28;20934;-66
2022/02/16 08:51:04;;;;;;;2.47;1.40;;;6.70;99.70;;;;;;5090760;28;20457;-66
2022/02/16 08:53:30;;;;;;;2.20;1.40;;;6.70;99.70;;;;;;5090195;28;20473;-66
2022/02/16 08:55:59;;;;;;;2.10;1.30;;;6.70;99.70;;;;;;5090688;28;20469;-66
2022/02/16 08:58:27;;;;;;;1.80;1.40;;;6.70;99.70;;;;;;5090951;28;20438;-66
2022/02/16 09:00:54;;;;;;;2.53;1.50;;;6.60;99.70;;;;;;5090934;28;20449;-66
2022/02/16 09:03:20;;;;;;;1.83;1.40;;;6.70;99.70;;;;;;5090918;28;20438;-67
2022/02/16 09:05:47;;;;;;;2.23;1.27;;;6.70;99.70;;;;;;5090153;28;20819;-66
2022/02/16 09:08:14;;;;;;;1.60;1.20;;;6.70;99.70;;;;;;5090473;28;20450;-66
2022/02/16 09:10:41;;;;;;;1.67;1.20;;;6.70;99.70;;;;;;5090760;28;20442;-67
2022/02/16 09:13:09;;;;;;;1.53;1.30;;;6.60;99.70;;;;;;5090822;28;20481;-66
2022/02/16 09:15:36;;;;;;;1.87;1.63;;;6.70;99.70;;;;;;5090348;28;20992;-67
2022/02/16 09:18:05;;;;;;;2.60;1.27;;;6.70;99.70;;;;;;5090718;28;20493;-67
2022/02/16 09:20:32;;;;;;;1.70;1.20;;;6.80;99.70;;;;;;5090630;28;20861;-67
2022/02/16 09:22:59;;;;;;;2.00;1.50;;;6.80;99.70;;;;;;5091447;28;20476;-67
2022/02/16 09:25:26;;;;;;;1.77;1.40;;;6.80;99.70;;;;;;5094339;28;20465;-66
2022/02/16 09:27:53;;;;;;;4.73;1.57;;;6.80;99.70;;;;;;5092244;28;20435;-66
2022/02/16 09:30:21;;;;;;;2.83;1.20;;;6.80;99.70;;;;;;5079537;28;20449;-66
2022/02/16 09:32:48;;;;;;;1.90;1.30;;;6.80;99.70;;;;;;5090895;28;20505;-66
2022/02/16 09:35:15;;;;;;;2.40;1.40;;;6.80;99.70;;;;;;5094022;28;20465;-67
2022/02/16 09:37:42;;;;;;;7.23;1.20;;;6.90;99.70;;;;;;5094289;28;20438;-66
2022/02/16 09:40:09;;;;;;;2.23;1.20;;;6.80;99.70;;;;;;5094118;28;20446;-66
2022/02/16 09:42:37;;;;;;;1.60;1.30;;;6.80;99.70;;;;;;5094212;28;20515;-67
2022/02/16 09:45:05;;;;;;;13.40;1.43;;;6.90;99.70;;;;;;5094037;28;20472;-67
2022/02/16 09:47:34;;;;;;;2.73;1.30;;;6.90;99.70;;;;;;5094161;28;20798;-67
2022/02/16 09:50:04;;;;;;;1.30;1.10;;;6.90;99.70;;;;;;5094114;28;20442;-66
2022/02/16 09:52:31;;;;;;;2.47;1.20;;;7.00;99.70;;;;;;5094125;28;20438;-67
2022/02/16 09:54:57;;;;;;;1.50;1.20;;;7.00;99.70;;;;;;5093696;28;20481;-66
2022/02/16 09:57:24;;;;;;;3.27;1.50;;;7.00;99.70;;;;;;5094040;28;20442;-67
2022/02/16 09:59:51;;;;;;;4.70;1.50;;;7.10;99.70;;;;;;5093902;28;20453;-66
2022/02/16 10:02:19;;;;;;;2.70;1.20;;;7.20;99.70;;;;;;5093837;28;20441;-66
2022/02/16 10:04:56;;;;;;;1.70;1.20;;;7.20;99.70;;;;;;5093768;28;20461;-66
2022/02/16 10:07:25;;;;;;;1.50;1.10;;;7.20;99.70;;;;;;5092724;28;20441;-66
2022/02/16 10:09:52;;;;;;;1.50;1.20;;;7.20;99.70;;;;;;5093225;28;20461;-67
2022/02/16 10:12:19;;;;;;;3.30;1.20;;;7.20;99.70;;;;;;5093812;28;20445;-67
2022/02/16 10:14:46;;;;;;;1.30;1.10;;;7.30;99.70;;;;;;5093270;28;20489;-64
2022/02/16 10:17:18;;;;;;;1.50;1.20;;;7.30;99.70;;;;;;5093706;28;20442;-66
2022/02/16 10:19:50;;;;;;;1.50;1.20;;;7.40;99.70;;;;;;5093474;28;20442;-66
2022/02/16 10:22:19;;;;;;;2.23;1.10;;;7.50;99.70;;;;;;5073066;28;20435;-66
2022/02/16 10:24:46;;;;;;;1.40;1.20;;;7.50;99.70;;;;;;5073033;28;20450;-65
2022/02/16 10:27:14;;;;;;;1.97;1.30;;;7.60;99.70;;;;;;5073252;28;20438;-67
2022/02/16 10:29:42;;;;;;;1.50;1.13;;;7.70;99.70;;;;;;5073092;28;20964;-66
2022/02/16 10:32:09;;;;;;;1.47;1.10;;;7.70;99.70;;;;;;5073017;28;20435;-67
2022/02/16 10:34:51;;;;;;;1.60;1.10;;;7.70;99.70;;;;;;5072685;28;20482;-66
2022/02/16 10:37:21;;;;;;;1.50;1.10;;;7.80;99.70;;;;;;5092186;28;20446;-67
2022/02/16 10:40:11;;;;;;;2.07;1.20;;;7.90;99.70;;;;;;5093256;28;20442;-66
2022/02/16 10:42:39;;;;;;;1.47;1.10;;;8.00;99.70;;;;;;5093145;28;20836;-67
2022/02/16 10:45:10;;;;;;;1.33;1.10;;;8.20;99.70;;;;;;5092949;28;20850;-66
2022/02/16 10:47:59;;;;;;;1.50;1.10;;;8.30;99.70;;;;;;5093180;28;20922;-66
2022/02/16 10:50:28;;;;;;;1.60;1.17;;;8.40;99.70;;;;;;5093217;28;20532;-67
2022/02/16 10:52:59;;;;;;;2.00;1.23;;;8.30;99.70;;;;;;5092797;28;20438;-67
2022/02/16 10:55:40;;;;;;;1.40;1.20;;;8.40;99.70;;;;;;5092916;28;20462;-66
2022/02/16 10:58:09;;;;;;;1.50;1.10;;;8.50;99.70;;;;;;5092960;28;20434;-66
2022/02/16 11:00:38;;;;;;;1.73;1.30;;;8.50;99.70;;;;;;5093029;28;20545;-66
2022/02/16 11:03:07;;;;;;;1.50;1.10;;;8.60;99.70;;;;;;5093271;28;20430;-66
2022/02/16 11:05:40;;;;;;;1.30;1.10;;;8.70;99.70;;;;;;5092562;28;20469;-66
2022/02/16 11:08:12;;;;;;;2.20;1.20;;;8.80;99.70;;;;;;5092194;28;20437;-66
2022/02/16 11:10:41;;;;;;;1.67;1.20;;;8.80;99.70;;;;;;5092945;28;20450;-66
2022/02/16 11:13:09;;;;;;;2.03;1.20;;;8.90;99.70;;;;;;5092791;28;20570;-66
2022/02/16 11:15:36;;;;;;;1.80;1.33;;;8.90;99.70;;;;;;5114611;22;20477;-64
2022/02/16 11:18:14;;;;;;;1.63;1.30;;;9.00;99.70;;;;;;5069395;28;20434;-65
2022/02/16 11:20:41;;;;;;;1.43;1.20;;;9.10;99.70;;;;;;5071769;28;20438;-64
2022/02/16 11:23:10;;;;;;;1.77;1.27;;;9.10;99.70;;;;;;5072151;28;20443;-65
2022/02/16 11:25:40;;;;;;;1.87;1.30;;;9.10;99.70;;;;;;5071946;28;20824;-63
2022/02/16 11:28:12;;;;;;;1.57;1.20;;;9.10;99.70;;;;;;5071978;28;20493;-63
2022/02/16 11:30:40;;;;;;;1.90;1.30;;;9.10;99.70;;;;;;5072121;28;20435;-63
2022/02/16 11:33:18;;;;;;;2.57;1.30;;;9.20;99.70;;;;;;5072004;28;20447;-63
2022/02/16 11:35:50;;;;;;;2.37;1.40;;;9.30;99.70;;;;;;5071640;28;20458;-63
2022/02/16 11:38:20;;;;;;;2.87;1.60;;;9.40;99.70;;;;;;5071903;28;20447;-62
2022/02/16 11:40:49;;;;;;;2.10;1.40;;;9.50;99.70;;;;;;5071756;28;20835;-64
2022/02/16 11:43:18;;;;;;;1.47;1.17;;;9.50;99.70;;;;;;5072006;28;20438;-63
2022/02/16 11:45:58;;;;;;;2.13;1.30;;;9.60;99.70;;;;;;5070834;28;20475;-63
2022/02/16 11:48:42;;;;;;;2.83;1.50;;;9.70;99.70;;;;;;5071497;28;20545;-63
2022/02/16 11:51:34;;;;;;;4.07;1.40;;;9.80;99.70;;;;;;5071747;28;20443;-62
2022/02/16 11:54:34;;;;;;;2.47;1.50;;;9.80;99.70;;;;;;5070818;28;20868;-64
2022/02/16 11:57:36;;;;;;;2.53;1.57;;;9.70;99.70;;;;;;5071119;28;20546;-64
2022/02/16 12:00:11;;;;;;;1.77;1.20;;;9.90;99.70;;;;;;5070981;28;20870;-63
2022/02/16 12:03:23;;;;;;;1.70;1.23;;;9.90;99.70;;;;;;5071610;28;20451;-63
2022/02/16 12:06:02;;;;;;;2.20;1.37;;;9.90;99.70;;;;;;5071187;28;20466;-62
2022/02/16 12:08:33;;;;;;;2.00;1.43;;;9.90;99.70;;;;;;5070378;28;20449;-66
2022/02/16 12:11:15;;;;;;;1.87;1.13;;;9.80;99.70;;;;;;5071381;28;20441;-65
2022/02/16 12:13:45;;;;;;;1.70;1.27;;;9.80;99.70;;;;;;5071404;28;20527;-63
2022/02/16 12:16:17;;;;;;;2.00;1.30;;;9.80;99.70;;;;;;5070932;28;20866;-64
2022/02/16 12:18:47;;;;;;;1.80;1.30;;;9.80;99.70;;;;;;5071206;28;20450;-63
2022/02/16 12:21:14;;;;;;;1.83;1.27;;;9.80;99.70;;;;;;5071310;28;20987;-63
2022/02/16 12:23:42;;;;;;;2.03;1.20;;;9.80;99.70;;;;;;5071341;28;20447;-63
2022/02/16 12:26:12;;;;;;;1.60;1.20;;;9.70;99.70;;;;;;5071059;28;20973;-62
2022/02/16 12:28:57;;;;;;;1.70;1.20;;;9.70;99.70;;;;;;5071036;28;20447;-63
2022/02/16 12:31:27;;;;;;;2.27;1.50;;;9.70;99.70;;;;;;5071143;28;20453;-65
2022/02/16 12:33:55;;;;;;;4.03;1.70;;;9.80;99.70;;;;;;5071087;28;20483;-62
2022/02/16 12:36:23;;;;;;;1.73;1.27;;;9.90;99.70;;;;;;5070865;28;20470;-64
2022/02/16 12:38:53;;;;;;;1.50;1.20;;;9.90;99.70;;;;;;5071163;28;20842;-62
2022/02/16 12:41:20;;;;;;;2.97;1.40;;;9.90;99.70;;;;;;5071152;28;20442;-64
2022/02/16 12:43:56;;;;;;;3.10;1.50;;;9.80;99.70;;;;;;5071217;28;20462;-64
2022/02/16 12:46:26;;;;;;;1.53;1.20;;;9.70;99.70;;;;;;5070824;28;20463;-64
2022/02/16 12:48:54;;;;;;;1.90;1.30;;;9.60;99.70;;;;;;5070943;28;20465;-65
2022/02/16 12:51:26;;;;;;;2.00;1.20;;;9.70;99.70;;;;;;5071008;28;20435;-63
2022/02/16 12:53:53;;;;;;;1.73;1.30;;;9.70;99.70;;;;;;5071056;28;20486;-63
2022/02/16 12:56:21;;;;;;;2.30;1.30;;;9.70;99.70;;;;;;5070675;28;20474;-64
2022/02/16 12:58:48;;;;;;;1.50;1.30;;;9.60;99.70;;;;;;5074727;28;20497;-64
2022/02/16 13:01:16;;;;;;;1.40;1.10;;;9.60;99.70;;;;;;5075043;28;20449;-62
2022/02/16 13:03:47;;;;;;;1.70;1.20;;;9.60;99.70;;;;;;5075013;28;20863;-62